Terminal Aerodrome Forecast
Issued by NWS Central Illinois

Home | Current Version | Previous Version | Text Only | Print | Product List | Glossary On
Versions: 1 2 3 4 5 6 7 8 9 10 11 12 13 14 15 16 17 18 19 20 21 22 23
384
FTUS43 KILX 260024 AAA
TAFPIA
TAF AMD
KPIA 260024Z 2600/2624 01005KT P6SM VCTS SCT025CB BKN070
      TEMPO 2600/2602 -SHRA BKN025
     FM260200 35004KT P6SM SCT025 BKN100
     FM261000 05004KT 5SM BR BKN040
     FM261400 06004KT P6SM BKN045=

USA.gov is the U.S. government's official web portal to all federal, state and local government web resources and services.